Time;durP1;ratioP1;P1;durP2;ratioP2;P2;SDS_P1;SDS_P2;PMS_P1;PMS_P2;Temp;Humidity;BMP_temperature;BMP_pressure;BME280_temperature;BME280_humidity;BME280_pressure;Samples;Min_cycle;Max_cycle;Signal;HPM_P1;HPM_P2
2022/10/04 00:02:25;;;;;;;;;52.25;41.50;;;;;13.38;75.41;101659.06;5074277;27;45526;-56
2022/10/04 00:05:00;;;;;;;;;46.00;37.00;;;;;13.35;75.80;101663.69;5077596;27;45501;-57
2022/10/04 00:07:33;;;;;;;;;43.50;39.00;;;;;13.33;75.48;101661.09;5076779;27;45301;-59
2022/10/04 00:10:17;;;;;;;;;49.50;36.75;;;;;13.27;75.48;101664.06;5073845;27;45525;-53
2022/10/04 00:12:50;;;;;;;;;45.00;39.75;;;;;13.30;75.66;101666.63;5077440;27;45424;-59
2022/10/04 00:15:15;;;;;;;;;40.00;35.25;;;;;13.29;76.43;101664.88;5076855;27;46215;-56
2022/10/04 00:17:41;;;;;;;;;39.25;36.75;;;;;13.26;76.03;101655.19;5078247;27;45570;-56
2022/10/04 00:20:45;;;;;;;;;41.25;34.75;;;;;13.30;75.73;101661.25;5092858;27;45471;-55
2022/10/04 00:23:30;;;;;;;;;28.67;24.67;;;;;13.31;75.13;101657.66;5077221;27;45484;-51
2022/10/04 00:26:00;;;;;;;;;28.25;24.25;;;;;13.30;74.80;101655.94;5076522;27;45389;-54
2022/10/04 00:28:25;;;;;;;;;27.75;24.00;;;;;13.31;74.27;101657.66;5076048;27;45442;-50
2022/10/04 00:31:09;;;;;;;;;36.75;29.00;;;;;13.27;74.42;101651.56;5077019;27;45234;-55
2022/10/04 00:33:38;;;;;;;;;28.25;25.50;;;;;13.27;74.65;101658.72;5078228;27;45647;-51
2022/10/04 00:36:22;;;;;;;;;25.25;25.25;;;;;13.24;74.96;101672.25;5076497;27;46426;-55
2022/10/04 00:39:03;;;;;;;;;33.25;31.00;;;;;13.22;75.15;101666.13;5060505;27;45355;-60
2022/10/04 00:41:49;;;;;;;;;30.25;25.75;;;;;13.20;75.16;101665.34;5077228;27;45263;-53
2022/10/04 00:44:19;;;;;;;;;30.50;29.25;;;;;13.20;75.28;101660.00;5065732;27;45626;-56
2022/10/04 00:46:47;;;;;;;;;35.25;30.50;;;;;13.16;75.48;101653.06;5076485;27;46216;-59
2022/10/04 00:49:16;;;;;;;;;49.00;38.75;;;;;13.18;75.69;101656.50;5093615;27;45475;-54
2022/10/04 00:52:09;;;;;;;;;43.50;38.00;;;;;13.18;75.93;101645.81;5056457;28;45306;-57
2022/10/04 00:54:43;;;;;;;;;45.00;37.75;;;;;13.18;76.14;101643.16;5085651;27;45672;-54
2022/10/04 00:57:19;;;;;;;;;37.25;35.00;;;;;13.14;76.36;101642.41;5070446;27;46385;-55
2022/10/04 01:00:13;;;;;;;;;46.25;37.00;;;;;13.16;76.02;101648.56;5074457;27;45362;-56
2022/10/04 01:02:55;;;;;;;;;54.00;41.00;;;;;13.11;76.16;101645.25;5091842;27;45290;-56
2022/10/04 01:05:26;;;;;;;;;45.50;39.25;;;;;13.06;76.65;101639.28;5075213;27;45847;-61
2022/10/04 01:08:03;;;;;;;;;52.00;41.75;;;;;12.97;76.37;101637.91;5080235;27;46108;-57
2022/10/04 01:10:33;;;;;;;;;54.00;39.00;;;;;12.95;76.91;101642.47;5073377;27;45409;-56
2022/10/04 01:13:24;;;;;;;;;9.50;5.25;;;;;12.92;76.85;101631.97;5077395;27;45223;-53
2022/10/04 01:15:59;;;;;;;;;45.50;38.75;;;;;12.95;76.69;101626.47;5076540;27;45478;-55
2022/10/04 01:18:25;;;;;;;;;44.00;38.00;;;;;12.96;76.41;101621.97;5075299;27;45369;-59
2022/10/04 01:21:21;;;;;;;;;51.75;41.00;;;;;12.96;76.54;101617.50;5073768;27;45761;-56
2022/10/04 01:23:48;;;;;;;;;46.25;39.00;;;;;12.94;76.20;101614.06;5088902;27;45385;-55
2022/10/04 01:26:25;;;;;;;;;50.00;41.00;;;;;12.94;76.23;101615.84;5075538;27;45521;-54
2022/10/04 01:28:52;;;;;;;;;48.25;39.75;;;;;12.90;76.46;101599.13;5075324;27;46262;-60
2022/10/04 01:31:18;;;;;;;;;43.00;38.75;;;;;12.90;76.91;101604.47;5073925;27;45427;-60
2022/10/04 01:33:43;;;;;;;;;48.75;38.50;;;;;12.90;76.84;101601.81;5078432;27;45512;-59
2022/10/04 01:36:09;;;;;;;;;49.50;38.75;;;;;12.87;77.26;101598.41;5080106;28;45587;-59
2022/10/04 01:38:34;;;;;;;;;51.50;43.25;;;;;12.85;77.36;101601.16;5095861;27;48207;-52
2022/10/04 01:41:03;;;;;;;;;49.50;40.25;;;;;12.85;76.93;101606.47;5074175;27;45432;-58
2022/10/04 01:43:35;;;;;;;;;51.50;41.00;;;;;12.83;76.62;101610.19;5073061;27;45308;-58
2022/10/04 01:46:11;;;;;;;;;42.50;38.50;;;;;12.74;77.26;101603.47;5096297;27;45502;-61
2022/10/04 01:48:42;;;;;;;;;44.75;39.00;;;;;12.70;77.13;101596.56;5085211;27;46834;-61
2022/10/04 01:51:18;;;;;;;;;45.00;36.00;;;;;12.62;76.66;101577.38;5073226;27;45445;-57
2022/10/04 01:53:59;;;;;;;;;44.00;37.25;;;;;12.73;77.20;101592.88;5079806;27;45238;-53
2022/10/04 01:56:31;;;;;;;;;38.25;36.75;;;;;12.66;76.98;101581.66;5089088;27;45473;-52
2022/10/04 01:59:14;;;;;;;;;50.00;40.00;;;;;12.70;76.93;101588.56;5094055;27;47955;-55
2022/10/04 02:01:47;;;;;;;;;47.25;39.50;;;;;12.69;77.39;101589.50;5081189;27;45319;-57
2022/10/04 02:04:34;;;;;;;;;51.50;39.75;;;;;12.64;77.29;101579.06;5070098;27;45240;-53
2022/10/04 02:07:02;;;;;;;;;53.25;41.00;;;;;12.63;77.28;101572.00;5094325;27;45630;-54
2022/10/04 02:09:33;;;;;;;;;56.00;42.00;;;;;12.60;77.52;101568.59;5079601;27;45328;-60
2022/10/04 02:11:59;;;;;;;;;49.50;41.75;;;;;12.62;77.27;101566.72;5087914;27;45269;-55
2022/10/04 02:14:31;;;;;;;;;45.50;41.00;;;;;12.58;77.57;101566.00;5085673;27;47196;-57
2022/10/04 02:17:00;;;;;;;;;52.25;40.75;;;;;12.60;77.07;101558.78;5077926;27;45237;-60
2022/10/04 02:19:33;;;;;;;;;45.00;37.50;;;;;12.60;77.55;101558.78;5093916;27;46400;-60
2022/10/04 02:22:02;;;;;;;;;47.25;35.50;;;;;12.54;77.47;101543.09;5079076;27;45458;-59
2022/10/04 02:24:31;;;;;;;;;46.50;40.75;;;;;12.56;77.68;101548.34;5093377;27;45503;-62
2022/10/04 02:26:57;;;;;;;;;32.50;31.25;;;;;12.52;77.52;101550.31;5092582;27;45629;-53
2022/10/04 02:29:22;;;;;;;;;56.00;40.50;;;;;12.52;77.33;101547.63;5087853;27;46564;-56
2022/10/04 02:34:35;;;;;;;;;43.00;37.75;;;;;12.52;76.99;101544.97;5076600;27;45471;-51
2022/10/04 02:37:06;;;;;;;;;46.75;39.25;;;;;12.47;77.42;101536.31;5078163;27;45472;-62
2022/10/04 02:40:12;;;;;;;;;48.50;39.50;;;;;12.47;76.92;101543.44;5076981;27;45586;-61
2022/10/04 02:42:59;;;;;;;;;42.75;37.75;;;;;12.40;77.41;101537.56;5063601;27;45643;-62
2022/10/04 02:45:51;;;;;;;;;44.00;38.50;;;;;12.40;77.66;101543.75;5078158;27;45468;-63
2022/10/04 02:48:36;;;;;;;;;47.50;38.25;;;;;12.36;78.00;101528.81;5092822;27;45382;-59
2022/10/04 02:51:19;;;;;;;;;45.50;39.50;;;;;12.32;77.89;101526.38;5077821;28;46381;-56
2022/10/04 02:54:16;;;;;;;;;49.25;39.75;;;;;12.36;77.84;101538.63;5094395;27;45650;-60
2022/10/04 02:56:43;;;;;;;;;45.25;38.75;;;;;12.32;77.54;101532.59;5072500;27;45343;-54
2022/10/04 02:59:18;;;;;;;;;50.25;40.00;;;;;12.26;78.05;101538.22;5075701;27;45279;-56
2022/10/04 03:01:57;;;;;;;;;50.25;42.00;;;;;12.20;77.49;101535.84;5079082;27;45376;-52
2022/10/04 03:04:28;;;;;;;;;53.50;40.25;;;;;12.13;77.51;101531.75;5075615;27;45357;-56
2022/10/04 03:06:56;;;;;;;;;49.50;39.00;;;;;12.11;77.74;101525.63;5077878;27;45404;-50
2022/10/04 03:09:24;;;;;;;;;46.75;40.75;;;;;12.11;77.84;101528.31;5074857;27;45473;-58
2022/10/04 03:11:50;;;;;;;;;48.75;39.25;;;;;12.04;78.14;101517.03;5077347;27;45432;-49
2022/10/04 03:14:23;;;;;;;;;55.00;38.25;;;;;12.10;77.68;101526.53;5075708;27;45486;-51
2022/10/04 03:16:54;;;;;;;;;49.00;38.00;;;;;12.10;78.06;101521.22;5093375;27;45574;-52
2022/10/04 03:19:23;;;;;;;;;46.50;38.75;;;;;12.08;78.17;101513.28;5082748;27;45502;-51
2022/10/04 03:21:51;;;;;;;;;44.50;38.00;;;;;12.11;77.76;101506.97;5075867;27;45464;-49
2022/10/04 03:24:23;;;;;;;;;44.00;37.25;;;;;12.09;77.95;101509.69;5075913;27;45358;-54
2022/10/04 03:26:53;;;;;;;;;50.25;39.00;;;;;12.10;77.99;101505.22;5034007;28;1225881;-52
2022/10/04 03:29:22;;;;;;;;;44.50;34.00;;;;;12.10;78.10;101499.88;5077041;27;45574;-54
2022/10/04 03:31:50;;;;;;;;;39.75;35.50;;;;;12.10;78.00;101489.22;5075984;27;45414;-53
2022/10/04 03:34:23;;;;;;;;;40.50;35.00;;;;;12.09;78.31;101491.00;5093246;27;45458;-56
2022/10/04 03:36:52;;;;;;;;;35.50;32.00;;;;;12.13;78.53;101494.41;5075697;27;45484;-54
2022/10/04 03:39:23;;;;;;;;;35.25;28.25;;;;;12.13;78.38;101488.22;5079801;27;45626;-57
2022/10/04 03:41:49;;;;;;;;;33.25;28.50;;;;;12.14;78.82;101488.16;5075700;27;46128;-53
2022/10/04 03:44:17;;;;;;;;;29.50;27.75;;;;;12.14;78.43;101490.81;5076706;27;45360;-55
2022/10/04 03:46:44;;;;;;;;;35.25;29.75;;;;;12.16;78.25;101502.25;5078357;27;45458;-48
2022/10/04 03:49:22;;;;;;;;;27.75;25.50;;;;;12.16;78.42;101491.59;5077440;27;45540;-55
2022/10/04 03:51:49;;;;;;;;;25.00;23.00;;;;;12.08;78.48;101473.28;5084841;27;46195;-52
2022/10/04 03:54:26;;;;;;;;;23.25;21.00;;;;;12.13;78.90;101483.75;5085894;27;45462;-56
2022/10/04 03:56:53;;;;;;;;;25.00;21.50;;;;;12.13;78.89;101489.09;5076574;27;47172;-58
2022/10/04 03:59:20;;;;;;;;;22.50;22.50;;;;;12.06;78.88;101474.31;5076497;27;45374;-52
2022/10/04 04:01:57;;;;;;;;;26.75;25.25;;;;;12.11;78.68;101480.31;5093647;27;46210;-60
2022/10/04 04:04:35;;;;;;;;;29.00;24.00;;;;;12.09;78.94;101482.16;5074557;27;45542;-59
2022/10/04 04:07:06;;;;;;;;;30.00;23.25;;;;;12.09;78.78;101487.47;5075155;27;45242;-57
2022/10/04 04:09:50;;;;;;;;;27.50;24.25;;;;;12.08;78.82;101491.97;5076350;27;45910;-53
2022/10/04 04:12:32;;;;;;;;;21.50;21.50;;;;;12.02;79.02;101486.06;5056872;28;45516;-52
2022/10/04 04:15:00;;;;;;;;;21.75;21.75;;;;;12.12;78.87;101503.34;5074562;27;45541;-56
2022/10/04 04:17:26;;;;;;;;;20.50;20.00;;;;;12.12;78.88;101503.34;5075936;27;45271;-52
2022/10/04 04:19:53;;;;;;;;;26.75;21.75;;;;;12.09;78.66;101500.81;5075746;27;45388;-57
2022/10/04 04:22:19;;;;;;;;;23.50;18.75;;;;;12.04;79.13;101495.72;5075932;27;46239;-57
2022/10/04 04:24:46;;;;;;;;;29.75;25.25;;;;;12.06;79.00;101507.16;5079018;27;45519;-54
2022/10/04 04:27:15;;;;;;;;;22.25;21.00;;;;;12.05;79.01;101501.91;5096137;27;45314;-53
2022/10/04 04:29:43;;;;;;;;;29.00;24.25;;;;;12.06;78.86;101514.31;5096564;27;45821;-60
2022/10/04 04:32:39;;;;;;;;;23.50;23.50;;;;;12.06;78.84;101514.31;5077058;27;45405;-57
2022/10/04 04:35:07;;;;;;;;;32.50;25.25;;;;;12.05;78.97;101513.44;5075873;27;45483;-59
2022/10/04 04:37:36;;;;;;;;;34.00;25.25;;;;;12.03;79.17;101511.78;5076016;27;45248;-60
2022/10/04 04:40:24;;;;;;;;;23.00;19.00;;;;;12.01;79.05;101508.34;5078838;27;45471;-61
2022/10/04 04:42:51;;;;;;;;;24.00;21.75;;;;;12.01;79.36;101514.53;5082670;27;47185;-60
2022/10/04 04:45:24;;;;;;;;;21.00;17.50;;;;;11.96;79.15;101508.53;5076502;27;45718;-58
2022/10/04 04:47:56;;;;;;;;;26.00;25.75;;;;;11.98;79.22;101511.13;5076083;27;45354;-57
2022/10/04 04:50:57;;;;;;;;;26.00;25.00;;;;;11.98;79.25;101513.78;5075016;27;45532;-59
2022/10/04 04:53:26;;;;;;;;;32.50;28.00;;;;;11.95;79.16;101512.13;5076286;27;45263;-62
2022/10/04 04:55:59;;;;;;;;;26.50;23.50;;;;;11.94;79.24;101504.22;5076103;27;45799;-52
2022/10/04 04:58:40;;;;;;;;;26.50;22.50;;;;;11.95;79.01;101512.13;5094055;27;47116;-53
2022/10/04 05:01:13;;;;;;;;;31.00;27.50;;;;;11.95;79.18;101516.59;5098068;27;45602;-58
2022/10/04 05:03:39;;;;;;;;;23.25;20.00;;;;;11.95;79.22;101516.59;5075356;27;45526;-54
2022/10/04 05:06:20;;;;;;;;;27.75;24.75;;;;;11.95;79.43;101519.28;5093316;27;45383;-56
2022/10/04 05:08:49;;;;;;;;;29.75;23.00;;;;;11.96;79.41;101507.66;5075649;27;45504;-53
2022/10/04 05:11:17;;;;;;;;;28.00;26.00;;;;;11.91;79.32;101504.38;5079181;27;45326;-52
2022/10/04 05:13:46;;;;;;;;;24.75;20.00;;;;;11.94;79.83;101505.06;5075368;27;46035;-56
2022/10/04 05:16:35;;;;;;;;;25.00;23.75;;;;;11.91;80.16;101512.38;5071260;27;45506;-50
2022/10/04 05:19:05;;;;;;;;;23.25;21.50;;;;;11.93;79.99;101521.16;5077959;27;45377;-64
2022/10/04 05:21:33;;;;;;;;;33.00;26.50;;;;;11.88;79.72;101515.19;5075103;27;45396;-50
2022/10/04 05:24:10;;;;;;;;;25.25;24.00;;;;;11.93;79.88;101518.47;5075776;27;45382;-58
2022/10/04 05:26:36;;;;;;;;;25.00;25.00;;;;;11.92;79.95;101506.09;5075913;27;45231;-57
2022/10/04 05:29:10;;;;;;;;;22.25;18.25;;;;;11.95;79.57;101505.94;5075941;27;45412;-58
2022/10/04 05:31:53;;;;;;;;;26.00;21.75;;;;;11.92;80.16;101506.97;5078334;27;45441;-61
2022/10/04 05:34:24;;;;;;;;;27.00;25.00;;;;;11.94;80.19;101509.56;5075604;27;46967;-54
2022/10/04 05:37:19;;;;;;;;;29.25;25.00;;;;;11.92;80.18;101493.63;5094372;27;45540;-54
2022/10/04 05:39:53;;;;;;;;;29.25;25.50;;;;;11.94;80.21;101505.06;5096778;27;45482;-60
2022/10/04 05:42:44;;;;;;;;;28.00;24.25;;;;;11.92;79.73;101503.44;5090074;27;45597;-59
2022/10/04 05:45:18;;;;;;;;;25.25;21.00;;;;;11.95;79.82;101511.28;5074496;28;46191;-61
2022/10/04 05:47:45;;;;;;;;;29.75;29.75;;;;;11.90;80.08;101505.31;5074781;27;45637;-60
2022/10/04 05:50:24;;;;;;;;;54.75;43.00;;;;;11.87;78.44;101503.66;5075868;27;45290;-62
2022/10/04 05:53:06;;;;;;;;;53.00;41.50;;;;;11.84;78.63;101503.78;5075180;27;45558;-60
2022/10/04 05:55:52;;;;;;;;;54.75;43.25;;;;;11.71;78.15;101490.13;5088564;27;45512;-62
2022/10/04 05:58:56;;;;;;;;;51.50;43.75;;;;;11.78;78.14;101506.72;5091087;27;45353;-59
2022/10/04 06:02:07;;;;;;;;;58.75;47.00;;;;;11.74;77.88;101491.81;5069755;27;45289;-58
2022/10/04 06:04:46;;;;;;;;;55.50;44.75;;;;;11.71;78.10;101492.78;5054168;27;45646;-56
2022/10/04 06:07:17;;;;;;;;;56.50;47.00;;;;;11.71;78.01;101503.44;5055119;28;45382;-59
2022/10/04 06:09:54;;;;;;;;;60.25;44.25;;;;;11.71;77.96;101494.59;5074166;28;45415;-56
2022/10/04 06:12:29;;;;;;;;;53.00;42.25;;;;;11.71;77.56;101498.13;5075378;27;45184;-57
2022/10/04 06:15:31;;;;;;;;;57.25;45.75;;;;;11.66;77.75;101494.81;5075401;27;45552;-63
2022/10/04 06:18:15;;;;;;;;;50.00;43.00;;;;;11.55;77.85;101473.13;5075510;27;45597;-62
2022/10/04 06:20:53;;;;;;;;;57.75;46.25;;;;;11.70;77.95;101507.06;5076947;28;46809;-60
2022/10/04 06:23:22;;;;;;;;;51.00;42.00;;;;;11.70;77.81;101506.19;5078662;28;45308;-66
2022/10/04 06:26:12;;;;;;;;;52.00;42.50;;;;;11.67;78.01;101517.00;5077231;27;45319;-62
2022/10/04 06:28:42;;;;;;;;;57.00;42.00;;;;;11.65;77.63;101519.72;5078807;27;45574;-57
2022/10/04 06:31:29;;;;;;;;;57.50;46.25;;;;;11.66;77.86;101513.47;5092232;27;45400;-59
2022/10/04 06:34:11;;;;;;;;;56.75;43.75;;;;;11.65;77.62;101513.53;5077249;27;45411;-61
2022/10/04 06:36:49;;;;;;;;;39.50;37.50;;;;;11.65;77.63;101521.53;5094240;27;45444;-63
2022/10/04 06:39:42;;;;;;;;;58.50;46.00;;;;;11.67;77.59;101522.31;5078496;27;46153;-59
2022/10/04 06:42:34;;;;;;;;;58.50;47.00;;;;;11.61;77.70;101512.81;5078617;28;45555;-62
2022/10/04 06:45:05;;;;;;;;;43.50;33.25;;;;;11.72;77.74;101523.84;5078611;27;45415;-65
2022/10/04 06:48:01;;;;;;;;;58.75;43.50;;;;;11.72;77.36;101523.84;5079096;27;45464;-59
2022/10/04 06:50:43;;;;;;;;;55.50;45.00;;;;;11.75;77.56;101526.38;5093707;27;46394;-61
2022/10/04 06:53:17;;;;;;;;;51.75;38.75;;;;;11.79;77.23;101528.00;5078182;27;45408;-58
2022/10/04 06:56:13;;;;;;;;;53.00;41.25;;;;;11.80;77.54;101524.38;5078433;28;45319;-58
2022/10/04 06:59:03;;;;;;;;;53.50;45.00;;;;;11.85;77.71;101518.88;5078999;28;45639;-57
2022/10/04 07:01:32;;;;;;;;;33.25;33.25;;;;;11.90;77.56;101530.16;5078122;28;45466;-55
2022/10/04 07:04:35;;;;;;;;;57.00;43.50;;;;;11.96;77.59;101526.31;5077992;28;45209;-58
2022/10/04 07:07:37;;;;;;;;;52.00;42.00;;;;;11.98;77.05;101514.69;5078391;28;45310;-59
2022/10/04 07:10:23;;;;;;;;;53.25;42.00;;;;;12.00;76.81;101514.59;5078270;28;45400;-61
2022/10/04 07:13:16;;;;;;;;;51.25;42.00;;;;;12.04;76.64;101514.38;5078336;28;45462;-58
2022/10/04 07:15:53;;;;;;;;;56.00;46.50;;;;;12.04;76.24;101519.72;5092070;27;45409;-51
2022/10/04 07:18:53;;;;;;;;;49.75;42.00;;;;;12.03;76.83;101517.97;5078254;27;45428;-58
2022/10/04 07:21:20;;;;;;;;;47.00;39.00;;;;;12.02;76.79;101510.94;5076968;27;45294;-55
2022/10/04 07:24:02;;;;;;;;;57.75;44.50;;;;;12.11;76.71;101525.63;5078196;27;45430;-58
2022/10/04 07:26:37;;;;;;;;;48.50;38.50;;;;;12.15;77.57;101524.53;5093444;27;45481;-57
2022/10/04 07:29:22;;;;;;;;;39.75;32.75;;;;;12.20;78.44;101519.84;5057631;28;45256;-62
2022/10/04 07:32:20;;;;;;;;;44.25;38.25;;;;;12.18;77.91;101505.72;5058270;28;45361;-63
2022/10/04 07:34:59;;;;;;;;;45.75;40.50;;;;;12.38;77.08;101542.13;5058404;28;45891;-60
2022/10/04 07:37:29;;;;;;;;;53.25;43.50;;;;;12.39;76.73;101543.84;5073826;28;45441;-59
2022/10/04 07:40:05;;;;;;;;;44.75;36.25;;;;;12.39;76.58;101536.69;5057714;28;45518;-64
2022/10/04 07:42:43;;;;;;;;;59.00;45.75;;;;;12.47;76.70;101538.13;5057698;28;45863;-65
2022/10/04 07:45:28;;;;;;;;;55.75;43.50;;;;;12.53;75.97;101538.69;5072014;28;46362;-62
2022/10/04 07:48:23;;;;;;;;;47.25;40.25;;;;;12.59;75.81;101534.84;5078205;28;45456;-59
2022/10/04 07:51:13;;;;;;;;;51.75;42.00;;;;;12.58;75.22;101538.44;5078291;27;45467;-59
2022/10/04 07:54:00;;;;;;;;;50.00;40.50;;;;;12.65;75.26;101538.09;5078288;28;45452;-58
2022/10/04 07:56:37;;;;;;;;;48.00;39.50;;;;;12.67;75.20;101525.53;5080100;27;46302;-58
2022/10/04 07:59:21;;;;;;;;;27.00;24.00;;;;;12.79;75.13;101528.53;5073062;28;45433;-57
2022/10/04 08:02:11;;;;;;;;;41.75;35.50;;;;;12.85;75.45;101526.41;5079286;27;45639;-55
2022/10/04 08:05:00;;;;;;;;;41.50;35.50;;;;;12.92;76.21;101521.63;5098070;27;45235;-60
2022/10/04 08:07:34;;;;;;;;;39.75;35.50;;;;;12.98;76.08;101523.97;5097585;27;46282;-63
2022/10/04 08:10:27;;;;;;;;;42.50;37.50;;;;;13.02;75.52;101517.53;5057000;28;45521;-63
2022/10/04 08:13:04;;;;;;;;;41.25;37.75;;;;;13.08;75.71;101519.03;5074073;27;45343;-63
2022/10/04 08:15:39;;;;;;;;;45.75;38.25;;;;;13.10;75.57;101514.47;5097112;27;45417;-61
2022/10/04 08:18:19;;;;;;;;;44.25;36.75;;;;;13.13;75.17;101515.16;5091901;27;45561;-59
2022/10/04 08:20:58;;;;;;;;;42.75;38.00;;;;;13.19;75.02;101514.03;5093046;27;45452;-59
2022/10/04 08:24:03;;;;;;;;;44.75;38.75;;;;;13.24;74.89;101507.47;5077428;28;45246;-68
2022/10/04 08:26:38;;;;;;;;;45.75;37.00;;;;;13.29;74.47;101509.94;5093250;27;45275;-61
2022/10/04 08:29:43;;;;;;;;;49.75;39.00;;;;;13.32;75.08;101508.91;5077108;27;47024;-63
2022/10/04 08:32:22;;;;;;;;;41.75;33.00;;;;;13.40;74.56;101512.00;5077008;28;45372;-60
2022/10/04 08:35:15;;;;;;;;;36.75;31.50;;;;;13.49;74.98;101516.88;5077269;27;45392;-63
2022/10/04 08:38:02;;;;;;;;;40.75;36.50;;;;;13.57;74.71;101536.91;5093638;27;45332;-61
2022/10/04 08:40:49;;;;;;;;;44.25;35.75;;;;;13.68;73.88;101538.16;5078151;27;46164;-67
2022/10/04 08:43:41;;;;;;;;;36.75;35.00;;;;;13.76;73.15;101542.13;5079047;27;45438;-62
2022/10/04 08:46:18;;;;;;;;;41.00;34.75;;;;;13.86;73.31;101539.81;5093184;27;45389;-64
2022/10/04 08:48:57;;;;;;;;;41.50;36.00;;;;;13.97;72.85;101540.09;5092825;27;45591;-66
2022/10/04 08:51:43;;;;;;;;;47.00;36.00;;;;;14.08;72.95;101545.72;5078832;27;45506;-64
2022/10/04 08:54:56;;;;;;;;;37.50;34.50;;;;;14.16;72.62;101532.75;5076485;28;45508;-60
2022/10/04 08:57:40;;;;;;;;;39.25;30.00;;;;;14.39;72.67;101546.66;5070021;28;45508;-60
2022/10/04 09:00:31;;;;;;;;;36.75;31.50;;;;;14.53;72.19;101533.38;5070850;28;45672;-64
2022/10/04 09:03:17;;;;;;;;;43.75;35.25;;;;;14.68;70.92;101529.81;5090468;27;45574;-60
2022/10/04 09:06:12;;;;;;;;;45.25;38.00;;;;;14.95;70.72;101539.84;5095669;27;45371;-61
2022/10/04 09:09:33;;;;;;;;;43.00;36.50;;;;;15.16;69.96;101538.59;5046531;28;45500;-61
2022/10/04 09:12:19;;;;;;;;;51.75;37.25;;;;;15.33;68.68;101538.41;5076561;27;45311;-58
2022/10/04 09:14:51;;;;;;;;;38.50;36.00;;;;;15.48;68.77;101533.94;5092057;27;45304;-63
2022/10/04 09:17:36;;;;;;;;;39.75;36.75;;;;;15.62;67.86;101539.38;5076792;28;45323;-58
2022/10/04 09:20:22;;;;;;;;;37.75;34.00;;;;;15.75;68.31;101536.75;5076450;28;45342;-66
2022/10/04 09:22:56;;;;;;;;;44.00;38.00;;;;;15.83;67.28;101539.81;5090781;27;45333;-63
2022/10/04 09:25:53;;;;;;;;;35.33;33.00;;;;;15.93;66.63;101530.25;5076737;27;45993;-65
2022/10/04 09:28:30;;;;;;;;;39.67;35.00;;;;;16.04;66.75;101536.75;5074685;27;45416;-61
2022/10/04 09:31:04;;;;;;;;;44.25;39.25;;;;;16.07;66.33;101533.88;5079489;27;45464;-64
2022/10/04 09:33:55;;;;;;;;;46.75;37.75;;;;;16.17;66.35;101532.31;5076256;27;45334;-65
2022/10/04 09:36:30;;;;;;;;;40.50;34.50;;;;;16.20;65.64;101529.44;5075599;28;45318;-64
2022/10/04 09:38:58;;;;;;;;;49.50;38.75;;;;;16.09;65.15;101507.78;5076218;28;45309;-65
2022/10/04 09:41:42;;;;;;;;;45.67;39.00;;;;;16.21;66.06;101528.47;5076139;28;45235;-64
2022/10/04 09:44:26;;;;;;;;;45.00;39.25;;;;;16.18;64.88;101528.69;5076047;28;45848;-56
2022/10/04 09:47:24;;;;;;;;;47.50;36.75;;;;;16.19;65.59;101522.34;5075733;28;46315;-60
2022/10/04 09:50:25;;;;;;;;;51.25;42.75;;;;;16.18;65.19;101517.94;5079139;27;45345;-55
2022/10/04 09:53:12;;;;;;;;;48.67;38.67;;;;;16.22;65.49;101511.41;5088904;27;45374;-55
2022/10/04 09:55:53;;;;;;;;;48.00;37.00;;;;;16.25;65.46;101513.03;5079413;28;45358;-60
2022/10/04 09:58:50;;;;;;;;;50.00;38.75;;;;;16.26;64.43;101526.34;5078721;27;46312;-58
2022/10/04 10:01:34;;;;;;;;;40.75;36.50;;;;;16.24;65.53;101517.53;5077389;28;45434;-54
2022/10/04 10:04:05;;;;;;;;;40.67;37.00;;;;;16.31;65.84;101523.38;5079696;28;45476;-58
2022/10/04 10:06:49;;;;;;;;;44.00;38.33;;;;;16.37;64.58;101518.44;5079361;27;45430;-57
2022/10/04 10:09:20;;;;;;;;;46.50;39.25;;;;;16.36;65.15;101516.72;5079198;28;45296;-61
2022/10/04 10:15:14;;;;;;;;;50.75;39.00;;;;;16.34;65.46;101507.91;5079053;28;45252;-51
2022/10/04 10:17:55;;;;;;;;;46.67;39.00;;;;;16.34;65.00;101499.00;5079068;28;45798;-53
2022/10/04 10:20:57;;;;;;;;;35.33;33.00;;;;;16.41;65.12;101493.16;5078661;27;45689;-52
2022/10/04 10:23:31;;;;;;;;;41.67;36.00;;;;;16.52;64.88;101495.09;5069902;28;45384;-54
2022/10/04 10:26:21;;;;;;;;;39.00;32.00;;;;;16.57;64.70;101484.06;5078870;27;45440;-54
2022/10/04 10:29:30;;;;;;;;;57.25;46.25;;;;;16.68;64.86;101484.25;5081371;27;45635;-57
2022/10/04 10:32:17;;;;;;;;;46.00;38.67;;;;;16.77;64.68;101480.91;5099669;27;46301;-57
2022/10/04 10:35:00;;;;;;;;;44.67;37.67;;;;;16.76;63.84;101474.69;5086287;27;45501;-58
2022/10/04 10:37:42;;;;;;;;;44.00;38.33;;;;;16.82;63.97;101484.16;5078863;27;45804;-49
2022/10/04 10:40:33;;;;;;;;;49.33;38.67;;;;;16.88;64.17;101481.03;5079014;28;45204;-49
2022/10/04 10:43:35;;;;;;;;;41.33;36.33;;;;;17.01;63.62;101481.94;5084105;27;45392;-55
2022/10/04 10:46:25;;;;;;;;;48.00;39.33;;;;;17.01;62.70;101483.75;5078798;27;45298;-56
2022/10/04 10:48:51;;;;;;;;;48.67;40.00;;;;;17.08;62.77;101483.25;5097062;27;45178;-56
2022/10/04 10:51:39;;;;;;;;;45.67;38.33;;;;;17.21;62.87;101471.63;5083223;27;45351;-55
2022/10/04 10:54:31;;;;;;;;;44.67;36.67;;;;;17.24;62.72;101474.09;5070936;27;46454;-53
2022/10/04 10:57:18;;;;;;;;;44.67;39.33;;;;;17.27;62.68;101465.81;5096530;27;45477;-57
2022/10/04 11:00:11;;;;;;;;;45.33;35.33;;;;;17.26;62.65;101453.34;5079079;27;45422;-61
2022/10/04 11:03:14;;;;;;;;;44.67;33.00;;;;;17.42;61.58;101464.72;5079543;27;45238;-59
2022/10/04 11:05:58;;;;;;;;;27.33;21.00;;;;;17.49;62.05;101466.03;5079071;28;45499;-57
2022/10/04 11:09:01;;;;;;;;;43.00;38.00;;;;;17.62;61.94;101457.94;5079173;27;45338;-61
2022/10/04 11:11:48;;;;;;;;;48.00;38.33;;;;;17.75;60.99;101460.66;5078878;28;45373;-61
2022/10/04 11:14:47;;;;;;;;;46.67;36.33;;;;;17.89;60.73;101455.13;5078878;28;45335;-60
2022/10/04 11:17:26;;;;;;;;;34.00;31.67;;;;;18.01;60.89;101469.50;5078417;28;45377;-57
2022/10/04 11:20:07;;;;;;;;;49.33;39.67;;;;;18.11;60.41;101476.81;5096149;27;45354;-59
2022/10/04 11:23:07;;;;;;;;;45.00;33.33;;;;;18.19;59.67;101469.00;5098850;27;45321;-59
2022/10/04 11:25:51;;;;;;;;;40.33;35.67;;;;;18.30;59.67;101470.03;5088762;27;45856;-62
2022/10/04 11:28:34;;;;;;;;;40.67;36.00;;;;;18.37;59.94;101468.63;5077891;28;46379;-56
2022/10/04 11:31:10;;;;;;;;;43.00;35.00;;;;;18.41;59.79;101459.34;5078516;27;45498;-60
2022/10/04 11:34:18;;;;;;;;;47.33;36.67;;;;;18.60;58.73;101480.34;5093653;27;45354;-52
2022/10/04 11:37:17;;;;;;;;;42.33;36.67;;;;;18.66;59.34;101485.31;5091599;27;45618;-51
2022/10/04 11:40:06;;;;;;;;;36.67;34.33;;;;;18.85;58.39;101485.63;5066211;28;45375;-58
2022/10/04 11:42:51;;;;;;;;;34.00;32.67;;;;;18.84;57.86;101482.06;5083931;27;45425;-57
2022/10/04 11:45:55;;;;;;;;;36.33;33.67;;;;;19.06;58.56;101485.81;5057851;27;45394;-54
2022/10/04 11:48:31;;;;;;;;;39.00;34.00;;;;;19.31;57.96;101482.91;5045377;28;45312;-57
2022/10/04 11:51:17;;;;;;;;;40.33;34.33;;;;;19.44;57.46;101472.03;5078935;27;45985;-52
2022/10/04 11:54:11;;;;;;;;;38.33;33.00;;;;;19.65;57.14;101466.75;5057246;28;45453;-59
2022/10/04 11:56:55;;;;;;;;;39.00;32.00;;;;;19.78;56.36;101470.19;5058206;28;45254;-56
2022/10/04 11:59:37;;;;;;;;;30.33;29.67;;;;;19.78;55.79;101459.41;5082645;27;45258;-53
2022/10/04 12:02:34;;;;;;;;;23.00;20.67;;;;;19.91;56.24;101453.84;5077634;27;46204;-55
2022/10/04 12:05:37;;;;;;;;;24.33;23.67;;;;;20.03;55.12;101456.41;5077600;27;45350;-58
2022/10/04 12:08:20;;;;;;;;;16.67;15.67;;;;;20.15;57.06;101469.88;5077644;27;45309;-58
2022/10/04 12:11:02;;;;;;;;;14.33;13.00;;;;;20.29;54.88;101470.47;5093411;27;45989;-57
2022/10/04 12:13:31;;;;;;;;;16.67;14.00;;;;;20.35;53.21;101471.81;5077229;28;46184;-50
2022/10/04 12:16:28;;;;;;;;;22.33;19.33;;;;;20.48;54.43;101468.97;5090959;27;45358;-63